SLAS/ASC METAR and TAF weather

Enter ICAO airport designator
Station Type Date Time Source
SLAS METAR 2022/09/27 15:00 UTC NOAA

SLAS 271500Z 36010KT 2000 FU NSC 34/22 Q1013


Station Type Date Time Source
SLAS Decoded METAR 2022/09/27 15:00 UTC NOAA

Ascencion De Guarayos, Bolivia (SLAS) 15-43S 063-06W
Sep 27, 2022 - 11:00 AM EDT / 2022.09.27 1500 UTC
Wind: from the N (360 degrees) at 12 MPH (10 KT):0
Visibility: 1 mile(s):0
Weather: smoke
Temperature: 93 F (34 C)
Heat index: 100.0 F (37.8 C):1
Dew Point: 71 F (22 C)
Relative Humidity: 49%
Pressure (altimeter): 29.91 in. Hg (1013 hPa)
ob: SLAS 271500Z 36010KT 2000 FU NSC 34/22 Q1013
cycle: 15

Station Type Date Time Source
SLAS TAF UTC NOAA

Error!

Example: see airport list